This is the latest recevied weather packets stored in our database for station/object SP2WM. If no packets are shown the sender has not sent any weather packets the latest 1 day(s).
| Time | Temp. | Humidity | Pressure | Rain* | Wind** | Luminosity | Snow |
|---|---|---|---|---|---|---|---|
| 1778100043 | 13.33° C | 84% | 1003.8 hPa | 0 mm | - | - | - |
| 1778099441 | 13.89° C | 84% | 1003.8 hPa | 0 mm | - | - | - |
| 1778095834 | 15.56° C | 78% | 1003.5 hPa | 0 mm | - | - | - |
| 1778092243 | 18.33° C | 69% | 1002.9 hPa | 0 mm | - | - | - |
| 1778089826 | 20.56° C | 60% | 1002.6 hPa | 0 mm | - | - | - |
| 1778089235 | 20.56° C | 60% | 1002.5 hPa | 0 mm | - | - | - |
| 1778088038 | 21.11° C | 59% | 1002.5 hPa | 0 mm | - | - | - |
| 1778086843 | 21.11° C | 58% | 1002.3 hPa | 0 mm | - | - | - |
| 1778083827 | 21.11° C | 59% | 1002.4 hPa | 0 mm | - | - | - |
| 1778083225 | 20.56° C | 59% | 1002.4 hPa | 0 mm | - | - | - |
| 1778082625 | 20.56° C | 60% | 1002.5 hPa | 0 mm | - | - | - |
| 1778081433 | 20.56° C | 60% | 1002.6 hPa | 0 mm | - | - | - |
| 1778080831 | 20.56° C | 59% | 1002.8 hPa | 0 mm | - | - | - |
| 1778079639 | 20.56° C | 59% | 1002.8 hPa | 0 mm | - | - | - |
| 1778078444 | 20.56° C | 60% | 1003 hPa | 0 mm | - | - | - |
| 1778077225 | 20° C | 60% | 1003.1 hPa | 0 mm | - | - | - |
| 1778075426 | 20.56° C | 59% | 1003.1 hPa | 0 mm | - | - | - |
| 1778074828 | 20.56° C | 57% | 1003 hPa | 0 mm | - | - | - |
| 1778071231 | 20.56° C | 58% | 1002.9 hPa | 1.02 mm | - | - | - |
| 1778068830 | 20.56° C | 58% | 1002.5 hPa | 0 mm | - | - | - |
| 1778068230 | 20.56° C | 59% | 1002.4 hPa | 0 mm | - | - | - |
| 1778067033 | 21.11° C | 58% | 1002.3 hPa | 0 mm | - | - | - |
| 1778066433 | 21.11° C | 59% | 1002 hPa | 0 mm | - | - | - |
| 1778065840 | 20.56° C | 58% | 1002 hPa | 0 mm | - | - | - |
| 1778064029 | 20.56° C | 60% | 1002 hPa | 0 mm | - | - | - |
* Rain latest hour (hover to see other rain measurements)
** Current wind speed in m/s (hover to see current wind gust speed)